Time;durP1;ratioP1;P1;durP2;ratioP2;P2;SDS_P1;SDS_P2;PMS_P1;PMS_P2;Temp;Humidity;BMP_temperature;BMP_pressure;BME280_temperature;BME280_humidity;BME280_pressure;Samples;Min_cycle;Max_cycle;Signal;HPM_P1;HPM_P2
2022/01/14 00:01:17;;;;;;;51.08;18.90;;;6.70;99.90;;;;;;5056197;28;20036;-85
2022/01/14 00:03:43;;;;;;;44.83;17.65;;;6.70;99.90;;;;;;5061590;28;20029;-85
2022/01/14 00:06:10;;;;;;;44.22;17.67;;;6.70;99.90;;;;;;5046103;28;20414;-85
2022/01/14 00:08:36;;;;;;;43.55;17.73;;;6.70;99.90;;;;;;5077161;28;20043;-85
2022/01/14 00:11:03;;;;;;;50.50;18.55;;;6.70;99.90;;;;;;5045772;28;20044;-84
2022/01/14 00:16:04;;;;;;;37.72;15.60;;;6.70;99.90;;;;;;5094518;28;20472;-85
2022/01/14 00:18:31;;;;;;;43.30;17.27;;;6.70;99.90;;;;;;5079861;28;20036;-85
2022/01/14 00:20:56;;;;;;;48.83;18.30;;;6.70;99.90;;;;;;5044512;28;20816;-85
2022/01/14 00:23:30;;;;;;;43.80;18.25;;;6.70;99.90;;;;;;5060158;28;20069;-84
2022/01/14 00:31:43;;;;;;;56.67;19.67;;;6.70;99.90;;;;;;5060607;28;20053;-85
2022/01/14 00:34:13;;;;;;;48.17;18.60;;;6.70;99.90;;;;;;5096834;28;20131;-85
2022/01/14 00:36:39;;;;;;;45.95;18.80;;;6.70;99.90;;;;;;5041600;28;20390;-84
2022/01/14 00:39:07;;;;;;;50.60;18.95;;;6.70;99.90;;;;;;5045047;28;20040;-85
2022/01/14 00:41:37;;;;;;;53.50;20.65;;;6.70;99.90;;;;;;5046063;28;20033;-84
2022/01/14 00:44:13;;;;;;;51.03;19.23;;;6.70;99.90;;;;;;5073831;28;20064;-84
2022/01/14 00:46:40;;;;;;;47.88;19.30;;;6.70;99.90;;;;;;5043746;28;20549;-85
2022/01/14 00:49:06;;;;;;;46.42;19.02;;;6.70;99.90;;;;;;5077869;28;20048;-84
2022/01/14 00:51:34;;;;;;;51.80;20.02;;;6.70;99.90;;;;;;5044943;28;20028;-84
2022/01/14 00:53:59;;;;;;;49.58;20.15;;;6.70;99.90;;;;;;5057354;28;20112;-85
2022/01/14 01:01:36;;;;;;;35.55;18.38;;;6.60;99.90;;;;;;5093159;28;20036;-85
2022/01/14 01:04:02;;;;;;;37.45;17.92;;;6.60;99.90;;;;;;5038894;28;20035;-85
2022/01/14 01:06:28;;;;;;;35.70;16.95;;;6.60;99.90;;;;;;5041680;28;20032;-84
2022/01/14 01:08:55;;;;;;;38.13;16.48;;;6.60;99.90;;;;;;5044033;28;20861;-84
2022/01/14 01:11:30;;;;;;;47.88;19.33;;;6.60;99.90;;;;;;5073952;28;20497;-84
2022/01/14 01:14:01;;;;;;;47.00;20.17;;;6.60;99.90;;;;;;5050180;28;20085;-85
2022/01/14 01:16:27;;;;;;;41.65;18.27;;;6.60;99.90;;;;;;5073350;28;20295;-84
2022/01/14 01:18:53;;;;;;;38.78;17.80;;;6.60;99.90;;;;;;5083281;28;20044;-85
2022/01/14 01:21:18;;;;;;;39.38;17.17;;;6.60;99.90;;;;;;5043372;28;20391;-85
2022/01/14 01:23:44;;;;;;;42.80;19.52;;;6.60;99.90;;;;;;5056267;28;20508;-85
2022/01/14 01:26:16;;;;;;;41.33;18.05;;;6.60;99.90;;;;;;5044782;28;20034;-84
2022/01/14 01:29:16;;;;;;;36.30;17.50;;;6.60;99.90;;;;;;5076119;28;20069;-85
2022/01/14 01:31:43;;;;;;;39.53;17.63;;;6.60;99.90;;;;;;5075757;28;20400;-84
2022/01/14 01:34:14;;;;;;;38.42;16.90;;;6.60;99.90;;;;;;5057314;28;20056;-84
2022/01/14 01:36:42;;;;;;;38.28;18.35;;;6.60;99.90;;;;;;5038416;28;20037;-84
2022/01/14 01:39:14;;;;;;;48.17;19.35;;;6.60;99.90;;;;;;5043850;28;20435;-84
2022/01/14 01:41:43;;;;;;;45.85;17.80;;;6.60;99.90;;;;;;5061574;28;20029;-84
2022/01/14 01:44:10;;;;;;;51.58;19.00;;;6.60;99.90;;;;;;5066441;28;20048;-85
2022/01/14 01:46:39;;;;;;;39.53;18.25;;;6.60;99.90;;;;;;5078851;28;20130;-85
2022/01/14 01:49:07;;;;;;;41.35;18.77;;;6.70;99.90;;;;;;5079756;28;20486;-84
2022/01/14 01:51:33;;;;;;;44.75;19.42;;;6.70;99.90;;;;;;5076190;28;20086;-84
2022/01/14 01:53:58;;;;;;;40.78;17.73;;;6.70;99.90;;;;;;5092393;28;20107;-84
2022/01/14 01:56:24;;;;;;;37.25;19.23;;;6.70;99.90;;;;;;5090746;28;20040;-85
2022/01/14 01:58:50;;;;;;;45.28;19.88;;;6.60;99.90;;;;;;5065238;28;20028;-85
2022/01/14 02:01:16;;;;;;;41.30;18.33;;;6.60;99.90;;;;;;5064746;28;20488;-85
2022/01/14 02:03:42;;;;;;;38.58;17.63;;;6.60;99.90;;;;;;5062178;28;20032;-85
2022/01/14 02:06:07;;;;;;;34.10;16.98;;;6.60;99.90;;;;;;5073074;28;20032;-84
2022/01/14 02:08:33;;;;;;;37.38;18.55;;;6.60;99.90;;;;;;5064051;28;20402;-85
2022/01/14 02:11:00;;;;;;;47.25;18.10;;;6.60;99.90;;;;;;5045834;28;20132;-85
2022/01/14 02:13:26;;;;;;;38.55;17.85;;;6.60;99.90;;;;;;5049355;28;20321;-85
2022/01/14 02:18:49;;;;;;;39.10;17.98;;;6.60;99.90;;;;;;5058858;28;20102;-85
2022/01/14 02:24:19;;;;;;;36.50;16.48;;;6.60;99.90;;;;;;5086211;28;20045;-85
2022/01/14 02:26:48;;;;;;;38.55;17.92;;;6.60;99.90;;;;;;5070846;28;20028;-85
2022/01/14 02:29:15;;;;;;;36.80;17.92;;;6.60;99.90;;;;;;5042315;28;20041;-85
2022/01/14 02:31:41;;;;;;;46.65;18.67;;;6.60;99.90;;;;;;5063504;28;20506;-85
2022/01/14 02:34:09;;;;;;;46.15;19.50;;;6.70;99.90;;;;;;5079965;28;20033;-84
2022/01/14 02:36:35;;;;;;;41.35;19.60;;;6.60;99.90;;;;;;5068877;28;20500;-85
2022/01/14 02:39:00;;;;;;;40.85;18.50;;;6.70;99.90;;;;;;5051673;28;20037;-85
2022/01/14 02:41:26;;;;;;;42.47;19.80;;;6.70;99.90;;;;;;5068015;28;20040;-85
2022/01/14 02:43:52;;;;;;;47.20;19.83;;;6.70;99.90;;;;;;5045602;28;20044;-85
2022/01/14 02:46:18;;;;;;;47.08;19.80;;;6.70;99.90;;;;;;5050370;28;20055;-84
2022/01/14 02:48:43;;;;;;;42.75;18.40;;;6.80;99.90;;;;;;5050633;28;20040;-84
2022/01/14 02:51:12;;;;;;;45.75;18.33;;;6.70;99.90;;;;;;5049579;28;20048;-84
2022/01/14 02:56:07;;;;;;;40.78;18.60;;;6.70;99.90;;;;;;5066239;28;20139;-85
2022/01/14 02:58:35;;;;;;;46.42;19.08;;;6.70;99.90;;;;;;5051375;28;20052;-85
2022/01/14 03:01:11;;;;;;;48.17;19.92;;;6.70;99.90;;;;;;5051972;28;20036;-85
2022/01/14 03:03:38;;;;;;;45.65;20.00;;;6.70;99.90;;;;;;5049747;28;20490;-85
2022/01/14 03:06:05;;;;;;;40.33;19.27;;;6.70;99.90;;;;;;5098862;28;20032;-85
2022/01/14 03:08:31;;;;;;;47.42;21.13;;;6.70;99.90;;;;;;5068700;28;20054;-85
2022/01/14 03:11:08;;;;;;;37.63;19.55;;;6.70;99.90;;;;;;5081141;28;20466;-85
2022/01/14 03:13:34;;;;;;;45.10;19.08;;;6.70;99.90;;;;;;5050757;28;20043;-85
2022/01/14 03:16:01;;;;;;;49.38;19.90;;;6.70;99.90;;;;;;5066167;28;20140;-85
2022/01/14 03:18:41;;;;;;;49.58;19.23;;;6.70;99.90;;;;;;5050932;28;20036;-85
2022/01/14 03:21:11;;;;;;;43.08;19.00;;;6.70;99.90;;;;;;5063076;28;20048;-85
2022/01/14 03:23:44;;;;;;;42.40;18.98;;;6.80;99.90;;;;;;5065380;28;20099;-85
2022/01/14 03:26:11;;;;;;;42.10;20.00;;;6.70;99.90;;;;;;5085782;28;20098;-85
2022/01/14 03:28:37;;;;;;;40.47;19.50;;;6.70;99.90;;;;;;5082778;28;20040;-85
2022/01/14 03:31:03;;;;;;;48.10;20.20;;;6.70;99.90;;;;;;5047802;28;20051;-85
2022/01/14 03:33:28;;;;;;;44.80;19.58;;;6.70;99.90;;;;;;5051430;28;20046;-85
2022/01/14 03:35:54;;;;;;;45.38;20.27;;;6.70;99.90;;;;;;5066759;28;21908;-85
2022/01/14 03:38:19;;;;;;;44.97;20.48;;;6.70;99.90;;;;;;5038916;28;20115;-85
2022/01/14 03:40:45;;;;;;;50.22;20.73;;;6.70;99.90;;;;;;5065934;28;20033;-85
2022/01/14 03:43:11;;;;;;;47.25;19.85;;;6.70;99.90;;;;;;5047949;28;20068;-85
2022/01/14 03:45:38;;;;;;;52.45;20.27;;;6.70;99.90;;;;;;5083927;28;20036;-85
2022/01/14 03:48:08;;;;;;;50.45;20.77;;;6.70;99.90;;;;;;5079389;28;20044;-84
2022/01/14 03:50:35;;;;;;;54.13;21.15;;;6.70;99.90;;;;;;5078466;28;20045;-84
2022/01/14 03:53:01;;;;;;;44.83;22.23;;;6.70;99.90;;;;;;5064017;28;20036;-84
2022/01/14 03:55:27;;;;;;;47.88;20.70;;;6.70;99.90;;;;;;5100941;28;20036;-85
2022/01/14 03:57:52;;;;;;;52.20;22.88;;;6.70;99.90;;;;;;5050058;28;20040;-85
2022/01/14 04:00:19;;;;;;;52.45;21.92;;;6.70;99.90;;;;;;5050255;28;20474;-85
2022/01/14 04:02:46;;;;;;;48.45;21.73;;;6.70;99.90;;;;;;5080305;28;20111;-85
2022/01/14 04:05:12;;;;;;;53.75;22.92;;;6.70;99.90;;;;;;5099381;28;20033;-85
2022/01/14 04:07:38;;;;;;;50.25;21.95;;;6.70;99.90;;;;;;5064926;28;20127;-85
2022/01/14 04:10:04;;;;;;;52.88;22.98;;;6.70;99.90;;;;;;5100636;28;20139;-85
2022/01/14 04:12:56;;;;;;;48.75;23.33;;;6.70;99.90;;;;;;5050017;28;20177;-85
2022/01/14 04:15:38;;;;;;;57.20;24.38;;;6.70;99.90;;;;;;5097065;28;20142;-85
2022/01/14 04:18:16;;;;;;;49.53;22.65;;;6.70;99.90;;;;;;5045436;28;20041;-85
2022/01/14 04:20:44;;;;;;;52.38;22.70;;;6.60;99.90;;;;;;5047789;28;20390;-85
2022/01/14 04:23:13;;;;;;;47.83;23.30;;;6.70;99.90;;;;;;5097138;28;20490;-85
2022/01/14 04:25:40;;;;;;;59.22;26.45;;;6.60;99.90;;;;;;5082675;28;20452;-85
2022/01/14 04:28:07;;;;;;;55.92;24.33;;;6.70;99.90;;;;;;5077455;28;20518;-85
2022/01/14 04:30:33;;;;;;;56.45;24.80;;;6.60;99.90;;;;;;5064970;28;20217;-85
2022/01/14 04:32:59;;;;;;;56.50;24.73;;;6.60;99.90;;;;;;5081122;28;20066;-85
2022/01/14 04:35:26;;;;;;;52.47;23.80;;;6.60;99.90;;;;;;5066665;28;20498;-85
2022/01/14 04:37:51;;;;;;;54.90;24.48;;;6.60;99.90;;;;;;5065839;28;20036;-85
2022/01/14 04:40:18;;;;;;;63.70;24.60;;;6.60;99.90;;;;;;5049563;28;20429;-85
2022/01/14 04:42:44;;;;;;;52.38;22.70;;;6.50;99.90;;;;;;5046283;28;20055;-85
2022/01/14 04:45:25;;;;;;;52.45;23.85;;;6.60;99.90;;;;;;5099452;28;20398;-84
2022/01/14 04:47:51;;;;;;;55.28;24.35;;;6.50;99.90;;;;;;5082096;28;20040;-84
2022/01/14 04:50:18;;;;;;;51.33;22.45;;;6.60;99.90;;;;;;5064514;28;20495;-84
2022/01/14 04:52:46;;;;;;;60.28;24.20;;;6.50;99.90;;;;;;5043989;28;20044;-85
2022/01/14 04:55:13;;;;;;;55.08;24.38;;;6.50;99.90;;;;;;5081010;28;20152;-85
2022/01/14 04:57:40;;;;;;;50.50;23.38;;;6.50;99.90;;;;;;5047326;28;20047;-85
2022/01/14 05:00:09;;;;;;;57.75;24.38;;;6.50;99.90;;;;;;5049521;28;20124;-85
2022/01/14 05:02:36;;;;;;;56.17;25.33;;;6.50;99.90;;;;;;5044194;28;20516;-85
2022/01/14 05:05:03;;;;;;;57.95;24.13;;;6.50;99.90;;;;;;5049657;28;20036;-84
2022/01/14 05:07:29;;;;;;;54.25;24.30;;;6.50;99.90;;;;;;5080209;28;20047;-85
2022/01/14 05:10:49;;;;;;;57.63;24.25;;;6.50;99.90;;;;;;5066035;28;20040;-85
2022/01/14 05:12:44;;;;;;;57.80;24.77;;;6.50;99.90;;;;;;5054276;28;20040;-85
2022/01/14 05:15:10;;;;;;;51.35;24.48;;;6.40;99.90;;;;;;5049645;28;20084;-85
2022/01/14 05:17:36;;;;;;;60.92;25.75;;;6.40;99.90;;;;;;5067265;28;20041;-85
2022/01/14 05:20:04;;;;;;;51.63;23.15;;;6.40;99.90;;;;;;5053547;28;20038;-85
2022/01/14 05:22:30;;;;;;;54.60;24.33;;;6.40;99.90;;;;;;5067071;28;20497;-85
2022/01/14 05:24:55;;;;;;;54.58;24.40;;;6.40;99.90;;;;;;5069008;28;20040;-85
2022/01/14 05:27:21;;;;;;;54.92;25.08;;;6.30;99.90;;;;;;5051664;28;20040;-85
2022/01/14 05:29:47;;;;;;;54.92;24.70;;;6.30;99.90;;;;;;5087723;28;20110;-85
2022/01/14 05:32:15;;;;;;;60.90;25.15;;;6.40;99.90;;;;;;5053913;28;20048;-85
2022/01/14 05:34:42;;;;;;;58.22;25.70;;;6.40;99.90;;;;;;5084981;28;20134;-85
2022/01/14 05:37:08;;;;;;;60.40;24.65;;;6.30;99.90;;;;;;5053370;28;20037;-85
2022/01/14 05:39:34;;;;;;;57.47;25.40;;;6.30;99.90;;;;;;5068364;28;20078;-85
2022/01/14 05:42:01;;;;;;;58.78;25.63;;;6.30;99.90;;;;;;5067771;28;20033;-85
2022/01/14 05:44:28;;;;;;;57.03;24.00;;;6.30;99.90;;;;;;5051978;28;20032;-85
2022/01/14 05:46:55;;;;;;;54.70;23.65;;;6.30;99.90;;;;;;5068089;28;20036;-85
2022/01/14 05:49:21;;;;;;;58.05;24.75;;;6.30;99.90;;;;;;5103391;27;20035;-85
2022/01/14 05:51:47;;;;;;;52.00;23.42;;;6.20;99.90;;;;;;5052490;28;20047;-85
2022/01/14 05:54:14;;;;;;;47.08;23.20;;;6.20;99.90;;;;;;5051684;28;20040;-85
2022/01/14 05:56:40;;;;;;;49.67;23.50;;;6.30;99.90;;;;;;5069631;28;20033;-85
2022/01/14 05:59:06;;;;;;;48.78;23.33;;;6.20;99.90;;;;;;5049248;28;20375;-85
2022/01/14 06:01:32;;;;;;;62.85;24.52;;;6.20;99.90;;;;;;5052637;28;20466;-85
2022/01/14 06:04:02;;;;;;;46.58;21.67;;;6.20;99.90;;;;;;5069208;28;20519;-85
2022/01/14 06:06:28;;;;;;;57.42;22.88;;;6.30;99.90;;;;;;5067206;28;20490;-85
2022/01/14 06:08:53;;;;;;;51.50;22.75;;;6.30;99.90;;;;;;5048878;28;20123;-85
2022/01/14 06:11:19;;;;;;;42.95;23.10;;;6.30;99.90;;;;;;5068709;28;20040;-85
2022/01/14 06:13:46;;;;;;;52.78;22.73;;;6.30;99.90;;;;;;5050717;28;20065;-85
2022/01/14 06:16:12;;;;;;;51.83;23.95;;;6.30;99.90;;;;;;5102116;28;20071;-85
2022/01/14 06:18:37;;;;;;;44.85;23.00;;;6.30;99.90;;;;;;5067238;28;20041;-85
2022/01/14 06:21:03;;;;;;;47.78;21.50;;;6.30;99.90;;;;;;5078671;28;20589;-85
2022/01/14 06:23:29;;;;;;;50.97;22.77;;;6.30;99.90;;;;;;5068946;28;20036;-85
2022/01/14 06:25:55;;;;;;;43.80;22.15;;;6.30;99.90;;;;;;5069089;28;20032;-85
2022/01/14 06:28:21;;;;;;;45.22;22.15;;;6.30;99.90;;;;;;5084518;28;20040;-85
2022/01/14 06:30:47;;;;;;;53.38;23.45;;;6.30;99.90;;;;;;5049260;28;20036;-85
2022/01/14 06:33:12;;;;;;;53.05;22.63;;;6.30;99.90;;;;;;5069710;28;20113;-85
2022/01/14 06:35:38;;;;;;;45.55;22.25;;;6.30;99.90;;;;;;5064978;28;20043;-85
2022/01/14 06:38:04;;;;;;;45.08;21.45;;;6.30;99.90;;;;;;5051984;28;20033;-85
2022/01/14 06:40:30;;;;;;;50.17;22.58;;;6.40;99.90;;;;;;5083936;28;20071;-85
2022/01/14 06:42:56;;;;;;;51.45;21.55;;;6.40;99.90;;;;;;5052742;28;20082;-85
2022/01/14 06:45:22;;;;;;;47.47;22.35;;;6.40;99.90;;;;;;5050798;28;20044;-85
2022/01/14 06:47:48;;;;;;;52.28;22.92;;;6.40;99.90;;;;;;5051979;28;20051;-85
2022/01/14 06:50:14;;;;;;;41.90;21.80;;;6.40;99.90;;;;;;5049869;28;20036;-85
2022/01/14 06:52:40;;;;;;;41.38;20.42;;;6.40;99.90;;;;;;5065811;28;20044;-85
2022/01/14 06:55:06;;;;;;;49.00;21.27;;;6.40;99.90;;;;;;5066656;28;20383;-85
2022/01/14 06:57:32;;;;;;;45.63;21.90;;;6.50;99.90;;;;;;5067139;28;20060;-85
2022/01/14 06:59:58;;;;;;;42.17;21.23;;;6.40;99.90;;;;;;5063243;28;20063;-85
2022/01/14 07:02:23;;;;;;;41.42;20.40;;;6.40;99.90;;;;;;5081163;28;20428;-85
2022/01/14 07:04:49;;;;;;;42.95;20.30;;;6.40;99.90;;;;;;5049603;28;20036;-85
2022/01/14 07:07:15;;;;;;;40.60;19.30;;;6.40;99.90;;;;;;5068074;28;20085;-85
2022/01/14 07:09:56;;;;;;;47.20;20.58;;;6.40;99.90;;;;;;5051316;28;20540;-85
2022/01/14 07:12:33;;;;;;;36.83;19.42;;;6.40;99.90;;;;;;5083373;28;20036;-85
2022/01/14 07:15:00;;;;;;;37.67;19.63;;;6.40;99.90;;;;;;5098286;28;20568;-85
2022/01/14 07:17:27;;;;;;;37.35;20.13;;;6.40;99.90;;;;;;5047934;28;20047;-85
2022/01/14 07:19:54;;;;;;;35.13;18.52;;;6.50;99.90;;;;;;5099870;28;20044;-85
2022/01/14 07:22:21;;;;;;;36.20;18.15;;;6.40;99.90;;;;;;5063804;28;20036;-85
2022/01/14 07:24:47;;;;;;;42.97;19.02;;;6.40;99.90;;;;;;5081931;28;20028;-85
2022/01/14 07:27:13;;;;;;;38.38;18.80;;;6.40;99.90;;;;;;5067695;28;20079;-85
2022/01/14 07:29:39;;;;;;;36.85;18.38;;;6.40;99.90;;;;;;5049416;28;20045;-85
2022/01/14 07:32:05;;;;;;;38.40;18.55;;;6.40;99.90;;;;;;5047341;28;20074;-85
2022/01/14 07:34:31;;;;;;;38.15;19.92;;;6.50;99.90;;;;;;5050674;28;20371;-85
2022/01/14 07:36:57;;;;;;;43.15;18.00;;;6.50;99.90;;;;;;5048420;28;20039;-85
2022/01/14 07:39:23;;;;;;;36.55;17.90;;;6.50;99.90;;;;;;5080168;28;20460;-84
2022/01/14 07:41:53;;;;;;;35.45;17.67;;;6.50;99.90;;;;;;5083481;28;20043;-85
2022/01/14 07:44:18;;;;;;;36.60;17.25;;;6.50;99.90;;;;;;5060788;28;20032;-84
2022/01/14 07:46:44;;;;;;;39.90;18.67;;;6.50;99.90;;;;;;5050049;28;20429;-87
2022/01/14 07:49:10;;;;;;;37.55;18.67;;;6.50;99.90;;;;;;5048822;28;20037;-85
2022/01/14 07:51:36;;;;;;;40.92;18.23;;;6.50;99.90;;;;;;5065307;28;20025;-85
2022/01/14 07:54:05;;;;;;;38.83;17.95;;;6.50;99.90;;;;;;5062750;28;20047;-85
2022/01/14 07:56:47;;;;;;;42.65;19.50;;;6.50;99.90;;;;;;5062916;28;20029;-85
2022/01/14 07:59:16;;;;;;;35.95;18.05;;;6.50;99.90;;;;;;5073554;28;20067;-84
2022/01/14 08:01:44;;;;;;;38.83;17.88;;;6.50;99.90;;;;;;5097719;27;20039;-82
2022/01/14 08:04:12;;;;;;;42.63;18.58;;;6.50;99.90;;;;;;5046204;28;20048;-85
2022/01/14 08:06:44;;;;;;;35.05;17.13;;;6.50;99.90;;;;;;5098595;28;20486;-85
2022/01/14 08:09:10;;;;;;;33.50;16.85;;;6.50;99.90;;;;;;5080161;28;20033;-85
2022/01/14 08:11:36;;;;;;;38.05;17.15;;;6.50;99.90;;;;;;5076903;28;20852;-84
2022/01/14 08:14:01;;;;;;;35.08;17.50;;;6.60;99.90;;;;;;5073004;28;20035;-85
2022/01/14 08:16:27;;;;;;;31.60;16.13;;;6.60;99.90;;;;;;5048019;28;20048;-85
2022/01/14 08:18:54;;;;;;;35.47;16.55;;;6.60;99.90;;;;;;5081730;28;20056;-84
2022/01/14 08:21:20;;;;;;;33.90;16.27;;;6.60;99.90;;;;;;5063025;28;20226;-86
2022/01/14 08:23:45;;;;;;;37.75;18.23;;;6.60;99.90;;;;;;5045751;28;20409;-85
2022/01/14 08:26:11;;;;;;;31.77;16.88;;;6.60;99.90;;;;;;5079769;28;20120;-85
2022/01/14 08:28:37;;;;;;;38.42;15.85;;;6.60;99.90;;;;;;5079459;28;20049;-84
2022/01/14 08:31:03;;;;;;;38.33;17.00;;;6.70;99.90;;;;;;5077553;28;20554;-85
2022/01/14 08:33:29;;;;;;;42.00;17.77;;;6.70;99.90;;;;;;5047037;28;20391;-85
2022/01/14 08:35:54;;;;;;;30.98;15.45;;;6.60;99.90;;;;;;5092569;28;20074;-84
2022/01/14 08:38:21;;;;;;;33.88;16.48;;;6.60;99.90;;;;;;5047622;28;20080;-85
2022/01/14 08:40:47;;;;;;;34.50;16.27;;;6.70;99.90;;;;;;5098567;28;20036;-85
2022/01/14 08:43:13;;;;;;;29.50;16.35;;;6.70;99.90;;;;;;5075145;28;20028;-84
2022/01/14 08:45:38;;;;;;;33.42;14.90;;;6.70;99.90;;;;;;5061094;28;20399;-85
2022/01/14 08:48:04;;;;;;;37.65;16.27;;;6.70;99.90;;;;;;5064867;28;20072;-86
2022/01/14 08:50:36;;;;;;;32.03;14.73;;;6.80;99.90;;;;;;5061048;28;20390;-85
2022/01/14 08:53:03;;;;;;;33.17;15.05;;;6.70;99.90;;;;;;5057605;28;20095;-85
2022/01/14 08:55:28;;;;;;;33.30;14.95;;;6.80;99.90;;;;;;5040601;28;20135;-83
2022/01/14 08:57:55;;;;;;;31.00;15.30;;;6.80;99.90;;;;;;5078194;28;20120;-83
2022/01/14 09:00:23;;;;;;;34.13;15.18;;;6.80;99.90;;;;;;5072479;28;20149;-85
2022/01/14 09:02:49;;;;;;;29.00;14.52;;;6.80;99.90;;;;;;5048219;28;20120;-84
2022/01/14 09:05:14;;;;;;;35.85;14.52;;;6.80;99.90;;;;;;5043732;28;20120;-84
2022/01/14 09:07:40;;;;;;;40.17;14.32;;;6.80;99.90;;;;;;5044142;28;20036;-84
2022/01/14 09:10:07;;;;;;;30.77;12.80;;;6.80;99.90;;;;;;5043442;28;20044;-84
2022/01/14 09:12:34;;;;;;;26.23;12.57;;;6.80;99.90;;;;;;5077812;28;20048;-84
2022/01/14 09:15:00;;;;;;;25.35;13.07;;;6.90;99.90;;;;;;5045781;28;20129;-82
2022/01/14 09:17:27;;;;;;;24.38;12.90;;;6.90;99.90;;;;;;5077590;28;20051;-83
2022/01/14 09:19:53;;;;;;;22.75;12.43;;;6.90;99.90;;;;;;5049030;28;20036;-83
2022/01/14 09:22:19;;;;;;;22.30;12.88;;;6.90;99.90;;;;;;5047138;28;20055;-83
2022/01/14 09:24:46;;;;;;;28.85;12.63;;;6.90;99.90;;;;;;5064917;28;20066;-83
2022/01/14 09:27:13;;;;;;;25.85;11.05;;;7.00;99.90;;;;;;5061128;28;20048;-83
2022/01/14 09:29:39;;;;;;;31.27;11.88;;;7.00;99.90;;;;;;5046356;28;20155;-84
2022/01/14 09:32:06;;;;;;;23.23;11.43;;;7.00;99.90;;;;;;5042470;28;20106;-84
2022/01/14 09:34:33;;;;;;;25.02;10.40;;;7.00;99.90;;;;;;5055434;28;20037;-87
2022/01/14 09:36:59;;;;;;;23.35;10.80;;;7.00;99.90;;;;;;5074556;28;20041;-86
2022/01/14 09:39:24;;;;;;;27.38;12.77;;;7.10;99.90;;;;;;5045113;28;20032;-84
2022/01/14 09:41:50;;;;;;;28.50;10.88;;;7.00;99.90;;;;;;5044288;28;20075;-85
2022/01/14 09:44:17;;;;;;;27.50;10.32;;;7.10;99.90;;;;;;5054441;28;20041;-84
2022/01/14 09:46:43;;;;;;;20.50;10.07;;;7.10;99.90;;;;;;5067848;28;20368;-84
2022/01/14 09:49:09;;;;;;;24.95;10.55;;;7.10;99.90;;;;;;5052724;28;20042;-86
2022/01/14 09:51:34;;;;;;;25.83;11.15;;;7.10;99.90;;;;;;5085670;28;20040;-86
2022/01/14 09:54:01;;;;;;;28.45;11.25;;;7.20;99.90;;;;;;5070151;28;20483;-86
2022/01/14 09:56:26;;;;;;;24.65;10.63;;;7.20;99.90;;;;;;5043367;28;20271;-86
2022/01/14 09:58:52;;;;;;;29.08;10.35;;;7.20;99.90;;;;;;5032834;28;20049;-86
2022/01/14 10:01:20;;;;;;;24.85;10.57;;;7.20;99.90;;;;;;5044282;28;20274;-86
2022/01/14 10:04:01;;;;;;;22.58;10.27;;;7.20;99.90;;;;;;5048494;28;20064;-86
2022/01/14 10:06:38;;;;;;;20.55;9.93;;;7.30;99.90;;;;;;5060659;28;20056;-86
2022/01/14 10:09:33;;;;;;;23.27;9.55;;;7.30;99.90;;;;;;5043652;28;20160;-82
2022/01/14 10:12:08;;;;;;;22.00;10.00;;;7.30;99.90;;;;;;5055267;28;20045;-83
2022/01/14 10:14:43;;;;;;;20.20;9.30;;;7.30;99.90;;;;;;5044292;28;20432;-81
2022/01/14 10:17:11;;;;;;;26.05;9.43;;;7.30;99.90;;;;;;5074786;28;20044;-84
2022/01/14 10:19:42;;;;;;;19.55;9.52;;;7.30;99.90;;;;;;5058900;28;20052;-87
2022/01/14 10:22:28;;;;;;;20.67;9.63;;;7.40;99.90;;;;;;5069729;28;20518;-89
2022/01/14 10:25:02;;;;;;;19.00;8.15;;;7.40;99.90;;;;;;5057078;28;20036;-85
2022/01/14 10:27:37;;;;;;;19.67;8.55;;;7.40;99.90;;;;;;5065516;28;20600;-87
2022/01/14 10:30:12;;;;;;;23.13;7.95;;;7.40;99.90;;;;;;5059140;28;20660;-87
2022/01/14 10:32:38;;;;;;;20.88;7.95;;;7.40;99.90;;;;;;5060391;28;20036;-87
2022/01/14 10:35:07;;;;;;;22.85;8.43;;;7.40;99.90;;;;;;5044781;28;20040;-89
2022/01/14 10:37:34;;;;;;;15.93;6.63;;;7.40;99.90;;;;;;5048017;28;20028;-87
2022/01/14 10:40:00;;;;;;;14.63;7.20;;;7.40;99.90;;;;;;5047746;28;20040;-82
2022/01/14 10:42:31;;;;;;;16.92;6.70;;;7.40;99.90;;;;;;5067304;28;20497;-87
2022/01/14 10:45:24;;;;;;;16.58;6.35;;;7.50;99.90;;;;;;5036733;28;20029;-88
2022/01/14 10:48:07;;;;;;;15.10;5.40;;;7.50;99.90;;;;;;5055644;28;20120;-86
2022/01/14 10:50:36;;;;;;;15.77;5.82;;;7.50;99.90;;;;;;5063521;28;20055;-85
2022/01/14 10:53:09;;;;;;;16.98;5.78;;;7.50;99.90;;;;;;5055741;28;20045;-86
2022/01/14 10:55:38;;;;;;;15.82;6.25;;;7.50;99.90;;;;;;5052054;28;20044;-86
2022/01/14 10:58:11;;;;;;;16.77;6.72;;;7.50;99.90;;;;;;5068905;28;20068;-86
2022/01/14 11:00:40;;;;;;;16.83;6.85;;;7.50;99.90;;;;;;5048537;28;20115;-87
2022/01/14 11:03:05;;;;;;;14.60;5.68;;;7.50;99.90;;;;;;5061671;28;20044;-86
2022/01/14 11:05:32;;;;;;;12.27;6.10;;;7.50;99.90;;;;;;5057034;28;20446;-86
2022/01/14 11:07:57;;;;;;;12.45;6.22;;;7.50;99.90;;;;;;5095103;28;20120;-86
2022/01/14 11:10:25;;;;;;;17.08;6.30;;;7.50;99.90;;;;;;5062599;28;20124;-86
2022/01/14 11:12:53;;;;;;;13.95;5.97;;;7.50;99.90;;;;;;5038397;28;20393;-86
2022/01/14 11:15:20;;;;;;;19.80;5.65;;;7.50;99.90;;;;;;5062698;28;20098;-86
2022/01/14 11:17:50;;;;;;;15.50;6.05;;;7.50;99.90;;;;;;5088007;28;20047;-86
2022/01/14 11:23:14;;;;;;;18.30;6.07;;;7.50;99.90;;;;;;5045466;28;20043;-85
2022/01/14 11:23:18;;;;;;;18.00;5.80;;;7.50;99.90;;;;;;5057815;28;20045;-85
2022/01/14 11:25:52;;;;;;;15.88;5.15;;;7.50;99.90;;;;;;5092073;28;20426;-85
2022/01/14 11:28:25;;;;;;;14.90;5.50;;;7.50;99.90;;;;;;5038887;28;20053;-85
2022/01/14 11:30:50;;;;;;;13.88;5.50;;;7.50;99.90;;;;;;5060418;28;20094;-86
2022/01/14 11:33:19;;;;;;;17.73;5.93;;;7.50;99.90;;;;;;5063269;28;20080;-86
2022/01/14 11:35:55;;;;;;;18.42;5.72;;;7.50;99.90;;;;;;5056418;28;20040;-85
2022/01/14 11:38:42;;;;;;;11.35;5.15;;;7.50;99.90;;;;;;5061369;28;20060;-85
2022/01/14 11:41:12;;;;;;;16.75;6.18;;;7.50;99.90;;;;;;5061936;28;20040;-85
2022/01/14 11:43:45;;;;;;;16.73;5.40;;;7.50;99.90;;;;;;5057700;28;20041;-86
2022/01/14 11:46:15;;;;;;;14.45;5.75;;;7.50;99.90;;;;;;5061572;28;20033;-86
2022/01/14 11:48:49;;;;;;;15.18;5.47;;;7.50;99.90;;;;;;5042705;28;20037;-87
2022/01/14 11:51:17;;;;;;;16.73;5.85;;;7.50;99.90;;;;;;5067840;28;20137;-86
2022/01/14 11:53:51;;;;;;;21.88;5.95;;;7.50;99.90;;;;;;5054152;28;20055;-88
2022/01/14 11:56:32;;;;;;;15.18;5.30;;;7.50;99.90;;;;;;5093359;28;20039;-88
2022/01/14 11:59:22;;;;;;;13.40;5.22;;;7.50;99.90;;;;;;5041194;28;20049;-86
2022/01/14 12:01:51;;;;;;;21.40;6.30;;;7.50;99.90;;;;;;5070371;28;20493;-89
2022/01/14 12:04:17;;;;;;;11.43;4.97;;;7.60;99.90;;;;;;5042348;28;20037;-88
2022/01/14 12:06:57;;;;;;;18.40;6.88;;;7.60;99.90;;;;;;5043342;28;21714;-87
2022/01/14 12:09:24;;;;;;;20.55;5.97;;;7.60;99.90;;;;;;5062075;28;20060;-87
2022/01/14 12:12:30;;;;;;;13.48;5.03;;;7.60;99.90;;;;;;5062707;28;20051;-87
2022/01/14 12:14:58;;;;;;;14.63;5.50;;;7.60;99.90;;;;;;5056916;28;20203;-87
2022/01/14 12:17:42;;;;;;;16.75;5.60;;;7.70;99.90;;;;;;5075059;28;20078;-87
2022/01/14 12:20:09;;;;;;;19.58;5.57;;;7.60;99.90;;;;;;5060112;28;20114;-87
2022/01/14 12:22:35;;;;;;;14.88;4.35;;;7.60;99.90;;;;;;5060188;28;20574;-87
2022/01/14 12:25:01;;;;;;;14.73;4.90;;;7.60;99.90;;;;;;5043884;28;20040;-83
2022/01/14 12:27:28;;;;;;;19.30;5.15;;;7.60;99.90;;;;;;5061047;28;20075;-85
2022/01/14 12:30:06;;;;;;;19.10;5.43;;;7.60;99.90;;;;;;5059550;28;20441;-88
2022/01/14 12:32:37;;;;;;;17.45;4.90;;;7.60;99.90;;;;;;5080621;28;20052;-88
2022/01/14 12:35:07;;;;;;;14.13;5.32;;;7.60;99.90;;;;;;5047049;28;20498;-88
2022/01/14 12:37:40;;;;;;;26.02;5.93;;;7.60;99.90;;;;;;5045706;28;20040;-88
2022/01/14 12:40:08;;;;;;;14.45;4.90;;;7.60;99.90;;;;;;5096325;28;20098;-88
2022/01/14 12:42:34;;;;;;;15.20;4.75;;;7.60;99.90;;;;;;5062762;28;20033;-88
2022/01/14 12:45:00;;;;;;;13.23;5.00;;;7.60;99.90;;;;;;5072470;28;20047;-88
2022/01/14 12:47:33;;;;;;;11.35;4.80;;;7.60;99.90;;;;;;5082971;28;20036;-88
2022/01/14 12:50:05;;;;;;;18.40;5.18;;;7.60;99.90;;;;;;5081139;28;20507;-88
2022/01/14 12:52:40;;;;;;;24.95;6.20;;;7.60;99.90;;;;;;5082052;28;20044;-88
2022/01/14 12:55:08;;;;;;;18.77;5.72;;;7.50;99.90;;;;;;5083665;28;20037;-88
2022/01/14 12:57:34;;;;;;;16.73;5.05;;;7.60;99.90;;;;;;5050387;28;20048;-88
2022/01/14 12:59:59;;;;;;;17.00;5.88;;;7.60;99.90;;;;;;5049806;28;20103;-88
2022/01/14 13:02:29;;;;;;;14.65;5.65;;;7.60;99.90;;;;;;5067401;28;20036;-88
2022/01/14 13:05:16;;;;;;;17.70;5.55;;;7.60;99.90;;;;;;5050684;28;20044;-88
2022/01/14 13:07:44;;;;;;;18.48;5.50;;;7.60;99.90;;;;;;5064597;28;20064;-89